createdAt,value
2019-03-04T00:01:41.819Z,28.85
2019-03-04T00:04:11.812Z,31.45
2019-03-04T00:06:41.869Z,31.10
2019-03-04T00:09:17.520Z,31.20
2019-03-04T00:11:47.181Z,29.55
2019-03-04T00:14:18.817Z,32.60
2019-03-04T00:16:55.423Z,27.57
2019-03-04T00:19:26.454Z,29.65
2019-03-04T00:21:55.037Z,30.12
2019-03-04T00:24:23.667Z,31.90
2019-03-04T00:26:52.229Z,30.70
2019-03-04T00:29:21.248Z,28.15
2019-03-04T00:31:51.198Z,25.90
2019-03-04T00:34:20.142Z,31.10
2019-03-04T00:36:48.743Z,30.77
2019-03-04T00:39:17.345Z,32.28
2019-03-04T00:41:45.908Z,34.30
2019-03-04T00:44:14.556Z,32.15
2019-03-04T00:46:43.139Z,33.00
2019-03-04T00:49:11.729Z,30.85
2019-03-04T00:51:40.631Z,31.33
2019-03-04T00:54:09.244Z,29.05
2019-03-04T00:56:37.927Z,33.75
2019-03-04T00:59:07.875Z,30.92
2019-03-04T01:01:36.553Z,34.50
2019-03-04T01:04:05.263Z,31.73
2019-03-04T01:06:33.843Z,30.82
2019-03-04T01:09:02.444Z,26.27
2019-03-04T01:11:31.053Z,28.32
2019-03-04T01:13:59.699Z,26.25
2019-03-04T01:16:28.375Z,28.12
2019-03-04T01:18:57.039Z,29.35
2019-03-04T01:21:25.635Z,26.00
2019-03-04T01:23:54.236Z,30.02
2019-03-04T01:26:22.816Z,31.50
2019-03-04T01:28:51.505Z,27.48
2019-03-04T01:31:20.080Z,25.12
2019-03-04T01:33:48.674Z,24.67
2019-03-04T01:36:17.315Z,28.27
2019-03-04T01:38:45.883Z,23.40
2019-03-04T01:41:14.509Z,29.90
2019-03-04T01:43:43.097Z,28.65
2019-03-04T01:46:12.109Z,28.67
2019-03-04T01:48:40.734Z,29.02
2019-03-04T01:51:09.462Z,29.05
2019-03-04T01:53:38.034Z,26.45
2019-03-04T01:56:06.620Z,28.35
2019-03-04T01:58:35.206Z,24.20
2019-03-04T02:01:04.035Z,30.65
2019-03-04T02:03:34.601Z,33.23
2019-03-04T02:06:04.524Z,41.70
2019-03-04T02:08:34.123Z,78.72
2019-03-04T02:11:02.695Z,86.28
2019-03-04T02:13:32.346Z,93.33
2019-03-04T02:16:01.179Z,100.20
2019-03-04T02:18:30.783Z,112.50
2019-03-04T02:20:59.387Z,87.67
2019-03-04T02:23:28.427Z,73.00
2019-03-04T02:26:06.119Z,79.00
2019-03-04T02:28:34.689Z,57.75
2019-03-04T02:31:05.846Z,54.30
2019-03-04T02:33:37.565Z,44.18
2019-03-04T02:36:06.146Z,30.05
2019-03-04T02:38:35.813Z,27.90
2019-03-04T02:41:04.503Z,32.65
2019-03-04T02:43:34.058Z,22.62
2019-03-04T02:46:02.997Z,23.18
2019-03-04T02:48:31.559Z,24.27
2019-03-04T02:51:00.244Z,24.02
2019-03-04T02:53:28.827Z,24.65
2019-03-04T02:55:58.739Z,24.67
2019-03-04T02:58:27.433Z,21.48
2019-03-04T03:00:56.111Z,24.95
2019-03-04T03:03:24.704Z,21.57
2019-03-04T03:05:53.250Z,20.82
2019-03-04T03:08:22.254Z,28.00
2019-03-04T03:10:50.885Z,18.02
2019-03-04T03:13:19.491Z,21.30
2019-03-04T03:15:55.910Z,18.05
2019-03-04T03:18:24.545Z,23.02
2019-03-04T03:20:53.273Z,22.93
2019-03-04T03:23:21.892Z,21.33
2019-03-04T03:25:50.486Z,23.25
2019-03-04T03:28:19.140Z,19.73
2019-03-04T03:30:47.810Z,21.55
2019-03-04T03:33:16.367Z,17.23
2019-03-04T03:35:44.956Z,17.30
2019-03-04T03:38:13.521Z,20.90
2019-03-04T03:40:42.238Z,24.10
2019-03-04T03:43:10.801Z,20.12
2019-03-04T03:45:39.392Z,17.55
2019-03-04T03:48:08.080Z,18.57
2019-03-04T03:50:36.706Z,16.17
2019-03-04T03:53:06.187Z,16.80
2019-03-04T03:55:34.800Z,15.72
2019-03-04T03:58:03.386Z,15.45
2019-03-04T04:00:32.001Z,17.87
2019-03-04T04:03:00.845Z,14.40
2019-03-04T04:05:29.465Z,15.88
2019-03-04T04:07:58.108Z,15.25
2019-03-04T04:10:26.743Z,18.23
2019-03-04T04:12:55.335Z,14.00
2019-03-04T04:15:23.920Z,18.42
2019-03-04T04:17:52.802Z,15.70
2019-03-04T04:20:22.366Z,22.75
2019-03-04T04:22:50.964Z,17.27
2019-03-04T04:25:19.640Z,18.95
2019-03-04T04:27:49.364Z,24.55
2019-03-04T04:30:29.158Z,21.70
2019-03-04T04:32:57.833Z,16.27
2019-03-04T04:35:26.524Z,16.00
2019-03-04T04:37:55.072Z,19.07
2019-03-04T04:40:23.658Z,15.55
2019-03-04T04:42:52.252Z,17.30
2019-03-04T04:45:20.958Z,16.12
2019-03-04T04:47:49.519Z,18.82
2019-03-04T04:50:23.646Z,17.62
2019-03-04T04:52:52.255Z,15.03
2019-03-04T04:55:20.924Z,16.37
2019-03-04T04:57:49.656Z,16.40
2019-03-04T05:00:20.654Z,15.38
2019-03-04T05:02:49.360Z,15.60
2019-03-04T05:05:18.181Z,15.20
2019-03-04T05:07:46.884Z,13.40
2019-03-04T05:10:19.795Z,17.17
2019-03-04T05:12:48.563Z,16.80
2019-03-04T05:15:17.917Z,15.78
2019-03-04T05:17:46.926Z,14.70
2019-03-04T05:20:26.151Z,20.25
2019-03-04T05:22:54.822Z,20.55
2019-03-04T05:25:23.429Z,23.18
2019-03-04T05:27:54.514Z,17.20
2019-03-04T05:30:23.646Z,21.48
2019-03-04T05:32:54.331Z,21.85
2019-03-04T05:35:22.908Z,17.52
2019-03-04T05:37:51.482Z,19.07
2019-03-04T05:40:21.677Z,21.12
2019-03-04T05:42:50.335Z,18.48
2019-03-04T05:45:19.464Z,14.38
2019-03-04T05:47:48.187Z,15.60
2019-03-04T05:50:21.508Z,13.32
2019-03-04T05:52:50.070Z,16.93
2019-03-04T05:55:18.965Z,13.75
2019-03-04T05:57:47.582Z,18.57
2019-03-04T06:00:21.515Z,14.93
2019-03-04T06:02:51.719Z,16.52
2019-03-04T06:05:20.307Z,20.45
2019-03-04T06:07:52.094Z,18.00
2019-03-04T06:10:20.890Z,16.17
2019-03-04T06:12:51.133Z,19.62
2019-03-04T06:15:23.803Z,16.42
2019-03-04T06:17:54.381Z,17.95
2019-03-04T06:20:25.033Z,17.15
2019-03-04T06:22:53.608Z,16.42
2019-03-04T06:25:26.899Z,15.32
2019-03-04T06:27:56.661Z,13.55
2019-03-04T06:30:31.709Z,18.73
2019-03-04T06:33:00.298Z,19.02
2019-03-04T06:35:30.806Z,17.12
2019-03-04T06:37:59.403Z,15.28
2019-03-04T06:40:29.091Z,13.30
2019-03-04T06:42:58.016Z,15.20
2019-03-04T06:45:27.023Z,13.38
2019-03-04T06:47:56.016Z,14.05
2019-03-04T06:50:56.314Z,16.77
2019-03-04T06:53:39.271Z,15.78
2019-03-04T06:56:22.018Z,16.23
2019-03-04T07:01:45.391Z,15.72
2019-03-04T07:04:25.977Z,16.30
2019-03-04T07:07:06.749Z,15.58
2019-03-04T07:09:35.371Z,15.23
2019-03-04T07:12:05.085Z,14.07
2019-03-04T07:14:35.721Z,13.45
2019-03-04T07:17:04.380Z,16.37
2019-03-04T07:19:33.912Z,17.30
2019-03-04T07:22:03.573Z,16.75
2019-03-04T07:24:32.209Z,15.50
2019-03-04T07:27:06.796Z,12.65
2019-03-04T07:29:35.632Z,15.70
2019-03-04T07:32:12.020Z,18.27
2019-03-04T07:34:42.223Z,14.45
2019-03-04T07:37:12.813Z,15.75
2019-03-04T07:39:41.424Z,12.82
2019-03-04T07:42:12.952Z,15.35
2019-03-04T07:44:42.866Z,13.53
2019-03-04T07:47:12.157Z,16.67
2019-03-04T07:49:43.266Z,16.40
2019-03-04T07:52:12.062Z,13.72
2019-03-04T07:54:40.682Z,13.78
2019-03-04T07:57:09.319Z,11.48
2019-03-04T07:59:38.211Z,14.65
2019-03-04T08:02:07.778Z,15.68
2019-03-04T08:04:36.949Z,14.03
2019-03-04T08:07:41.491Z,13.08
2019-03-04T08:10:46.930Z,14.40
2019-03-04T08:13:18.651Z,11.75
2019-03-04T08:15:48.268Z,11.45
2019-03-04T08:18:16.865Z,15.72
2019-03-04T08:20:45.553Z,13.88
2019-03-04T08:23:14.640Z,12.45
2019-03-04T08:25:46.115Z,11.75
2019-03-04T08:28:14.809Z,11.28
2019-03-04T08:30:43.591Z,9.80
2019-03-04T08:33:12.281Z,13.32
2019-03-04T08:35:41.208Z,12.98
2019-03-04T08:38:09.836Z,12.07
2019-03-04T08:40:38.433Z,18.52
2019-03-04T08:43:07.786Z,12.95
2019-03-04T08:45:37.044Z,11.48
2019-03-04T08:48:05.865Z,14.05
2019-03-04T08:50:34.786Z,10.48
2019-03-04T08:53:03.365Z,11.73
2019-03-04T08:55:31.977Z,12.40
2019-03-04T08:58:00.540Z,13.80
2019-03-04T09:00:32.601Z,17.35
2019-03-04T09:03:01.666Z,18.50
2019-03-04T09:05:30.427Z,11.03
2019-03-04T09:07:59.146Z,11.97
2019-03-04T09:10:29.972Z,16.48
2019-03-04T09:12:58.710Z,12.68
2019-03-04T09:15:27.851Z,15.10
2019-03-04T09:17:56.694Z,18.10
2019-03-04T09:20:25.339Z,22.98
2019-03-04T09:22:57.236Z,16.10
2019-03-04T09:27:56.823Z,13.40
2019-03-04T09:30:25.538Z,14.47
2019-03-04T09:32:54.263Z,11.55
2019-03-04T09:35:22.875Z,11.95
2019-03-04T09:37:51.527Z,37.98
2019-03-04T09:40:31.404Z,21.05
2019-03-04T09:43:01.229Z,30.25
2019-03-04T09:45:38.412Z,16.48
2019-03-04T09:48:00.267Z,14.50
2019-03-04T09:50:30.396Z,12.75
2019-03-04T09:52:59.095Z,18.82
2019-03-04T09:55:30.054Z,11.20
2019-03-04T09:57:58.630Z,32.20
2019-03-04T10:00:50.548Z,15.18
2019-03-04T10:03:30.722Z,10.50
2019-03-04T10:06:23.279Z,13.32
2019-03-04T10:09:14.496Z,26.30
2019-03-04T10:12:01.134Z,17.92
2019-03-04T10:14:44.669Z,10.50
2019-03-04T10:17:28.745Z,24.35
2019-03-04T10:20:13.483Z,20.75
2019-03-04T10:22:50.953Z,12.28
2019-03-04T10:25:26.481Z,23.42
2019-03-04T10:28:04.105Z,12.03
2019-03-04T10:30:47.877Z,13.85
2019-03-04T10:33:35.671Z,14.78
2019-03-04T10:36:13.136Z,10.90
2019-03-04T10:39:00.041Z,14.90
2019-03-04T10:41:46.229Z,13.78
2019-03-04T10:44:51.041Z,14.80
2019-03-04T10:47:19.811Z,14.50
2019-03-04T10:49:48.404Z,12.35
2019-03-04T10:52:17.066Z,17.73
2019-03-04T10:54:45.691Z,11.60
2019-03-04T10:57:15.441Z,14.38
2019-03-04T10:59:44.027Z,10.58
2019-03-04T11:02:13.550Z,18.35
2019-03-04T11:04:43.116Z,12.63
2019-03-04T11:07:11.843Z,9.78
2019-03-04T11:09:40.496Z,10.43
2019-03-04T11:12:09.577Z,14.40
2019-03-04T11:14:38.145Z,14.93
2019-03-04T11:17:06.834Z,18.75
2019-03-04T11:19:36.935Z,19.35
2019-03-04T11:22:05.667Z,10.35
2019-03-04T11:24:34.314Z,10.00
2019-03-04T11:27:02.903Z,11.50
2019-03-04T11:29:31.556Z,15.68
2019-03-04T11:32:03.243Z,11.97
2019-03-04T11:34:31.959Z,10.15
2019-03-04T11:37:00.597Z,12.58
2019-03-04T11:39:34.895Z,11.83
2019-03-04T11:42:04.550Z,9.90
2019-03-04T11:44:33.187Z,15.23
2019-03-04T11:47:01.768Z,13.20
2019-03-04T11:49:30.338Z,11.68
2019-03-04T11:51:59.268Z,11.50
2019-03-04T11:54:27.887Z,11.08
2019-03-04T11:56:56.480Z,11.10
2019-03-04T11:59:25.111Z,11.75
2019-03-04T12:01:53.706Z,20.30
2019-03-04T12:04:22.944Z,12.78
2019-03-04T12:06:52.268Z,8.35
2019-03-04T12:09:20.848Z,11.50
2019-03-04T12:11:49.729Z,11.80
2019-03-04T12:14:19.362Z,11.97
2019-03-04T12:16:48.126Z,11.35
2019-03-04T12:19:17.798Z,15.65
2019-03-04T12:21:46.492Z,12.43
2019-03-04T12:24:15.081Z,10.60
2019-03-04T12:26:43.734Z,13.83
2019-03-04T12:29:12.401Z,11.78
2019-03-04T12:31:42.625Z,11.88
2019-03-04T12:34:12.854Z,10.50
2019-03-04T12:36:42.517Z,24.07
2019-03-04T12:39:12.254Z,14.30
2019-03-04T12:41:43.900Z,13.83
2019-03-04T12:52:35.156Z,15.63
2019-03-04T12:55:05.325Z,12.43
2019-03-04T12:57:35.032Z,13.45
2019-03-04T13:00:10.531Z,20.35
2019-03-04T13:02:39.252Z,13.25
2019-03-04T13:05:11.087Z,15.15
2019-03-04T13:07:39.869Z,11.30
2019-03-04T13:10:18.883Z,15.55
2019-03-04T13:12:47.560Z,11.97
2019-03-04T13:15:21.679Z,11.68
2019-03-04T13:17:50.390Z,14.65
2019-03-04T13:20:24.448Z,10.90
2019-03-04T13:22:54.008Z,18.35
2019-03-04T13:25:23.664Z,12.30
2019-03-04T13:27:53.243Z,11.83
2019-03-04T13:30:26.477Z,13.08
2019-03-04T13:32:55.211Z,9.60
2019-03-04T13:35:33.021Z,9.15
2019-03-04T13:38:02.505Z,12.23
2019-03-04T13:40:31.891Z,11.45
2019-03-04T13:43:01.512Z,12.05
2019-03-04T13:45:31.271Z,12.45
2019-03-04T13:48:00.833Z,11.88
2019-03-04T13:50:34.595Z,12.18
2019-03-04T13:53:03.229Z,12.37
2019-03-04T13:55:31.963Z,8.63
2019-03-04T13:58:00.643Z,11.15
2019-03-04T14:00:41.396Z,17.32
2019-03-04T14:03:13.146Z,11.85
2019-03-04T14:05:41.814Z,10.82
2019-03-04T14:08:10.563Z,21.95
2019-03-04T14:10:41.880Z,10.08
2019-03-04T14:13:10.858Z,12.43
2019-03-04T14:15:42.189Z,10.18
2019-03-04T14:18:11.859Z,13.38
2019-03-04T14:20:40.529Z,13.90
2019-03-04T14:23:09.184Z,11.10
2019-03-04T14:25:38.068Z,12.85
2019-03-04T14:28:06.806Z,10.72
2019-03-04T14:30:35.430Z,11.33
2019-03-04T14:33:04.093Z,12.50
2019-03-04T14:35:34.755Z,13.20
2019-03-04T14:38:03.838Z,15.28
2019-03-04T14:40:35.511Z,12.07
2019-03-04T14:43:04.400Z,12.18
2019-03-04T14:45:32.994Z,11.05
2019-03-04T14:48:02.678Z,15.95
2019-03-04T14:50:31.314Z,9.13
2019-03-04T14:52:59.928Z,11.75
2019-03-04T14:55:33.752Z,9.73
2019-03-04T14:58:02.322Z,14.98
2019-03-04T15:00:43.244Z,14.38
2019-03-04T15:03:22.114Z,11.38
2019-03-04T15:05:43.327Z,12.73
2019-03-04T15:08:11.909Z,11.65
2019-03-04T15:10:40.490Z,9.55
2019-03-04T15:13:10.120Z,11.80
2019-03-04T15:15:38.917Z,11.78
2019-03-04T15:18:07.665Z,13.65
2019-03-04T15:20:37.350Z,9.20
2019-03-04T15:23:07.161Z,20.10
2019-03-04T15:25:38.576Z,13.32
2019-03-04T15:28:15.601Z,18.12
2019-03-04T15:30:46.901Z,15.23
2019-03-04T15:33:18.417Z,10.72
2019-03-04T15:35:47.070Z,16.20
2019-03-04T15:38:16.836Z,14.85
2019-03-04T15:40:45.439Z,15.15
2019-03-04T15:43:15.668Z,12.40
2019-03-04T15:45:45.913Z,17.85
2019-03-04T15:48:15.357Z,14.63
2019-03-04T15:50:44.138Z,16.40
2019-03-04T15:53:13.057Z,19.48
2019-03-04T15:55:43.060Z,11.75
2019-03-04T15:58:11.796Z,15.78
2019-03-04T16:00:43.828Z,15.93
2019-03-04T16:03:13.522Z,12.78
2019-03-04T16:05:42.167Z,15.03
2019-03-04T16:08:12.479Z,15.18
2019-03-04T16:10:41.214Z,17.85
2019-03-04T16:13:09.942Z,14.25
2019-03-04T16:15:44.448Z,15.98
2019-03-04T16:18:13.131Z,15.85
2019-03-04T16:20:41.763Z,14.85
2019-03-04T16:23:13.348Z,11.12
2019-03-04T16:25:42.096Z,18.27
2019-03-04T16:28:16.569Z,12.10
2019-03-04T16:30:48.260Z,12.37
2019-03-04T16:33:17.275Z,18.80
2019-03-04T16:35:47.549Z,12.40
2019-03-04T16:38:16.412Z,13.85
2019-03-04T16:40:45.973Z,15.08
2019-03-04T16:43:15.761Z,17.05
2019-03-04T16:45:49.075Z,13.18
2019-03-04T16:48:20.121Z,13.53
2019-03-04T16:50:48.808Z,17.62
2019-03-04T16:53:29.219Z,15.83
2019-03-04T16:55:57.952Z,17.25
2019-03-04T16:58:26.610Z,15.72
2019-03-04T17:00:55.415Z,19.92
2019-03-04T17:03:24.127Z,13.85
2019-03-04T17:05:53.828Z,19.25
2019-03-04T17:08:22.471Z,15.13
2019-03-04T17:10:51.145Z,15.05
2019-03-04T17:13:20.772Z,15.65
2019-03-04T17:15:49.949Z,17.23
2019-03-04T17:18:18.684Z,19.62
2019-03-04T17:20:47.810Z,17.07
2019-03-04T17:23:18.897Z,18.62
2019-03-04T17:25:47.635Z,26.50
2019-03-04T17:28:16.351Z,23.30
2019-03-04T17:30:45.237Z,19.17
2019-03-04T17:33:14.463Z,19.00
2019-03-04T17:35:44.013Z,17.12
2019-03-04T17:38:12.658Z,23.87
2019-03-04T17:40:41.339Z,21.20
2019-03-04T17:43:09.973Z,20.37
2019-03-04T17:45:38.674Z,22.90
2019-03-04T17:48:07.397Z,21.82
2019-03-04T17:50:43.999Z,20.43
2019-03-04T17:53:14.499Z,21.42
2019-03-04T17:55:44.606Z,15.03
2019-03-04T17:58:14.437Z,19.25
2019-03-04T18:00:44.886Z,14.93
2019-03-04T18:03:13.603Z,18.65
2019-03-04T18:05:43.756Z,13.10
2019-03-04T18:08:12.373Z,13.75
2019-03-04T18:10:42.890Z,12.40
2019-03-04T18:13:16.863Z,16.10
2019-03-04T18:15:45.498Z,12.47
2019-03-04T18:18:14.073Z,14.68
2019-03-04T18:20:43.708Z,18.73
2019-03-04T18:23:12.446Z,16.05
2019-03-04T18:25:46.925Z,20.65
2019-03-04T18:28:57.237Z,17.67
2019-03-04T18:31:38.990Z,14.83
2019-03-04T18:34:32.217Z,16.10
2019-03-04T18:37:17.099Z,13.90
2019-03-04T18:39:51.564Z,14.43
2019-03-04T18:42:45.297Z,13.40
2019-03-04T18:45:19.909Z,16.35
2019-03-04T18:48:03.310Z,12.18
2019-03-04T18:50:32.034Z,13.62
2019-03-04T18:53:00.908Z,11.05
2019-03-04T18:55:31.723Z,11.50
2019-03-04T18:58:02.429Z,13.28
2019-03-04T19:00:31.719Z,12.43
2019-03-04T19:03:00.400Z,14.18
2019-03-04T19:05:29.148Z,12.70
2019-03-04T19:07:57.799Z,11.05
2019-03-04T19:10:26.650Z,14.53
2019-03-04T19:12:56.222Z,9.88
2019-03-04T19:15:24.919Z,11.38
2019-03-04T19:17:54.483Z,14.18
2019-03-04T19:20:23.475Z,9.88
2019-03-04T19:22:53.046Z,13.40
2019-03-04T19:25:21.763Z,11.88
2019-03-04T19:27:50.559Z,10.55
2019-03-04T19:30:19.250Z,10.75
2019-03-04T19:32:47.861Z,13.03
2019-03-04T19:35:16.763Z,9.05
2019-03-04T19:37:45.736Z,15.45
2019-03-04T19:40:16.269Z,11.45
2019-03-04T19:42:45.083Z,11.05
2019-03-04T19:45:20.740Z,12.05
2019-03-04T19:47:49.616Z,11.50
2019-03-04T19:50:18.637Z,16.52
2019-03-04T19:52:47.201Z,9.98
2019-03-04T19:55:18.359Z,12.33
2019-03-04T19:57:53.476Z,12.68
2019-03-04T20:00:34.723Z,10.58
2019-03-04T20:03:06.113Z,8.55
2019-03-04T20:05:34.873Z,11.12
2019-03-04T20:08:04.978Z,10.43
2019-03-04T20:10:33.556Z,10.28
2019-03-04T20:13:02.232Z,13.03
2019-03-04T20:15:36.035Z,9.23
2019-03-04T20:18:04.759Z,9.80
2019-03-04T20:20:33.536Z,14.13
2019-03-04T20:23:02.216Z,11.80
2019-03-04T20:25:31.027Z,15.20
2019-03-04T20:28:02.692Z,10.78
2019-03-04T20:30:31.380Z,15.60
2019-03-04T20:33:00.021Z,10.93
2019-03-04T20:35:28.700Z,9.95
2019-03-04T20:38:18.331Z,11.03
2019-03-04T20:40:47.077Z,9.28
2019-03-04T20:43:15.643Z,16.40
2019-03-04T20:45:45.540Z,10.45
2019-03-04T20:48:14.191Z,10.10
2019-03-04T20:50:42.847Z,15.05
2019-03-04T20:53:11.476Z,12.85
2019-03-04T20:55:40.062Z,12.85
2019-03-04T20:58:08.781Z,10.90
2019-03-04T21:00:39.195Z,13.40
2019-03-04T21:03:08.695Z,13.13
2019-03-04T21:05:37.701Z,17.82
2019-03-04T21:08:07.899Z,12.07
2019-03-04T21:10:36.848Z,12.03
2019-03-04T21:13:22.479Z,12.13
2019-03-04T21:15:51.268Z,11.73
2019-03-04T21:18:20.128Z,9.95
2019-03-04T21:20:48.952Z,12.85
2019-03-04T21:23:17.815Z,10.93
2019-03-04T21:25:59.174Z,9.53
2019-03-04T21:28:49.129Z,9.43
2019-03-04T21:31:30.419Z,10.00
2019-03-04T21:34:11.406Z,7.12
2019-03-04T21:36:43.281Z,8.58
2019-03-04T21:39:16.636Z,9.20
2019-03-04T21:42:03.351Z,9.93
2019-03-04T21:44:44.874Z,9.18
2019-03-04T21:47:29.458Z,6.95
2019-03-04T21:49:58.147Z,7.67
2019-03-04T21:52:41.543Z,8.83
2019-03-04T21:55:13.357Z,10.70
2019-03-04T21:57:45.264Z,8.40
2019-03-04T22:00:18.028Z,9.05
2019-03-04T22:02:49.985Z,7.05
2019-03-04T22:05:19.445Z,9.40
2019-03-04T22:07:49.025Z,7.92
2019-03-04T22:10:17.985Z,16.10
2019-03-04T22:12:46.604Z,9.95
2019-03-04T22:15:16.443Z,9.20
2019-03-04T22:17:45.166Z,11.33
2019-03-04T22:20:15.775Z,11.57
2019-03-04T22:22:45.433Z,11.57
2019-03-04T22:25:14.816Z,13.60
2019-03-04T22:27:43.458Z,9.20
2019-03-04T22:30:19.073Z,12.15
2019-03-04T22:32:47.729Z,12.88
2019-03-04T22:35:17.754Z,8.73
2019-03-04T22:37:46.839Z,14.58
2019-03-04T22:40:18.151Z,8.90
2019-03-04T22:42:46.901Z,8.83
2019-03-04T22:45:17.492Z,8.28
2019-03-04T22:47:46.671Z,12.03
2019-03-04T22:50:17.159Z,8.08
2019-03-04T22:52:45.743Z,8.35
2019-03-04T22:55:20.309Z,12.18
2019-03-04T22:57:48.872Z,7.17
2019-03-04T23:00:54.963Z,10.40
2019-03-04T23:03:25.731Z,10.40
2019-03-04T23:06:14.103Z,12.78
2019-03-04T23:08:43.025Z,8.93
2019-03-04T23:11:11.705Z,12.73
2019-03-04T23:13:58.613Z,13.00
2019-03-04T23:16:32.576Z,14.68
2019-03-04T23:19:02.107Z,12.55
2019-03-04T23:21:30.758Z,14.70
2019-03-04T23:23:59.471Z,10.80
2019-03-04T23:26:28.585Z,9.83
2019-03-04T23:28:57.333Z,12.58
2019-03-04T23:31:25.996Z,8.23
2019-03-04T23:33:54.546Z,10.10
2019-03-04T23:36:23.272Z,8.20
2019-03-04T23:38:51.868Z,7.67
2019-03-04T23:41:20.466Z,5.17
2019-03-04T23:43:49.147Z,10.98
2019-03-04T23:46:17.788Z,7.30
2019-03-04T23:48:46.374Z,4.58
2019-03-04T23:51:14.977Z,9.53
2019-03-04T23:53:43.919Z,7.05
2019-03-04T23:56:12.907Z,2.58
2019-03-04T23:58:41.487Z,3.70
